Time;durP1;ratioP1;P1;durP2;ratioP2;P2;SDS_P1;SDS_P2;PMS_P1;PMS_P2;Temp;Humidity;BMP_temperature;BMP_pressure;BME280_temperature;BME280_humidity;BME280_pressure;Samples;Min_cycle;Max_cycle;Signal;HPM_P1;HPM_P2
2022/01/03 00:01:44;;;;;;;;;;;21.20;44.70;;;;;;5095017;28;19923;-42
2022/01/03 00:04:11;;;;;;;;;;;21.20;44.80;;;;;;5092399;27;20284;-43
2022/01/03 00:06:38;;;;;;;;;;;21.20;44.80;;;;;;5095214;28;19924;-43
2022/01/03 00:09:05;;;;;;;;;;;21.20;44.80;;;;;;5113320;28;19979;-48
2022/01/03 00:11:32;;;;;;;;;;;21.10;44.70;;;;;;5112193;27;20447;-43
2022/01/03 00:13:59;;;;;;;;;;;21.20;44.80;;;;;;5095241;28;19924;-42
2022/01/03 00:16:26;;;;;;;;;;;21.10;44.70;;;;;;5112751;28;19924;-44
2022/01/03 00:18:54;;;;;;;;;;;21.10;44.70;;;;;;5109960;28;19969;-41
2022/01/03 00:21:23;;;;;;;;;;;21.10;44.70;;;;;;5095129;28;20064;-42
2022/01/03 00:23:51;;;;;;;;;;;21.10;44.80;;;;;;5094576;28;19930;-44
2022/01/03 00:26:20;;;;;;;;;;;21.10;44.90;;;;;;5093823;28;19924;-48
2022/01/03 00:28:49;;;;;;;;;;;21.10;44.80;;;;;;5095889;28;19961;-45
2022/01/03 00:31:15;;;;;;;;;;;21.10;44.90;;;;;;5111529;28;19959;-41
2022/01/03 00:33:42;;;;;;;;;;;21.10;44.90;;;;;;5095748;28;20029;-46
2022/01/03 00:36:10;;;;;;;;;;;21.10;45.50;;;;;;5096198;28;19924;-43
2022/01/03 00:38:37;;;;;;;;;;;21.10;45.00;;;;;;5094510;28;20353;-43
2022/01/03 00:41:04;;;;;;;;;;;21.10;45.00;;;;;;5112866;28;20451;-42
2022/01/03 00:43:31;;;;;;;;;;;21.10;45.00;;;;;;5094827;28;19932;-42
2022/01/03 00:45:58;;;;;;;;;;;21.10;45.00;;;;;;5095257;28;20327;-44
2022/01/03 00:48:24;;;;;;;;;;;21.10;45.10;;;;;;5096353;28;19973;-40
2022/01/03 00:50:51;;;;;;;;;;;21.00;45.00;;;;;;5095643;28;19966;-45
2022/01/03 00:53:20;;;;;;;;;;;21.10;45.10;;;;;;5092005;28;19970;-47
2022/01/03 00:55:53;;;;;;;;;;;21.00;45.10;;;;;;5097440;28;19923;-42
2022/01/03 00:58:19;;;;;;;;;;;21.00;45.10;;;;;;5092274;28;19920;-42
2022/01/03 01:00:46;;;;;;;;;;;21.00;45.20;;;;;;5096167;28;19924;-47
2022/01/03 01:03:15;;;;;;;;;;;21.00;45.20;;;;;;5095869;28;20010;-43
2022/01/03 01:05:43;;;;;;;;;;;21.00;45.20;;;;;;5095128;28;19924;-44
2022/01/03 01:08:09;;;;;;;;;;;21.00;45.20;;;;;;5095781;28;20046;-45
2022/01/03 01:10:38;;;;;;;;;;;21.00;45.20;;;;;;5112348;28;19931;-44
2022/01/03 01:13:06;;;;;;;;;;;21.00;45.30;;;;;;5112981;28;19996;-43
2022/01/03 01:15:34;;;;;;;;;;;21.00;45.30;;;;;;5095539;28;20241;-45
2022/01/03 01:18:03;;;;;;;;;;;21.00;45.30;;;;;;5091630;28;20356;-42
2022/01/03 01:20:30;;;;;;;;;;;21.00;45.30;;;;;;5095118;28;19924;-42
2022/01/03 01:22:57;;;;;;;;;;;21.00;45.30;;;;;;5111384;28;20022;-44
2022/01/03 01:27:45;;;;;;;;;;;21.00;45.30;;;;;;5095070;28;19948;-46
2022/01/03 01:28:14;;;;;;;;;;;21.00;45.40;;;;;;5095714;28;19928;-43
2022/01/03 01:30:41;;;;;;;;;;;21.00;45.40;;;;;;5113291;28;19947;-42
2022/01/03 01:33:08;;;;;;;;;;;21.00;45.40;;;;;;5097361;28;19927;-46
2022/01/03 01:35:36;;;;;;;;;;;20.90;45.30;;;;;;5118103;28;19928;-44
2022/01/03 01:38:03;;;;;;;;;;;21.00;45.40;;;;;;5090239;28;19991;-45
2022/01/03 01:40:30;;;;;;;;;;;21.00;45.40;;;;;;5099237;28;20361;-44
2022/01/03 01:42:57;;;;;;;;;;;21.00;45.40;;;;;;5098791;28;19932;-45
2022/01/03 01:45:26;;;;;;;;;;;20.90;45.40;;;;;;5097887;28;19928;-47
2022/01/03 01:47:55;;;;;;;;;;;21.00;45.40;;;;;;5096092;28;19930;-43
2022/01/03 01:50:22;;;;;;;;;;;21.00;45.40;;;;;;5099303;28;19924;-41
2022/01/03 01:52:48;;;;;;;;;;;20.90;45.30;;;;;;5098681;28;20403;-41
2022/01/03 01:55:16;;;;;;;;;;;20.90;45.40;;;;;;5116342;28;20289;-41
2022/01/03 01:57:58;;;;;;;;;;;20.90;45.40;;;;;;5116896;27;19927;-41
2022/01/03 02:00:27;;;;;;;;;;;20.90;45.40;;;;;;5095813;28;20273;-44
2022/01/03 02:02:59;;;;;;;;;;;20.90;45.40;;;;;;5115795;28;19928;-45
2022/01/03 02:05:28;;;;;;;;;;;20.90;45.40;;;;;;5089213;28;19930;-41
2022/01/03 02:07:58;;;;;;;;;;;20.90;45.40;;;;;;5100022;28;19928;-43
2022/01/03 02:10:30;;;;;;;;;;;20.90;45.40;;;;;;5095159;28;19924;-42
2022/01/03 02:12:57;;;;;;;;;;;20.90;45.40;;;;;;5099438;28;19955;-45
2022/01/03 02:15:24;;;;;;;;;;;20.90;45.50;;;;;;5096941;28;19928;-44
2022/01/03 02:17:52;;;;;;;;;;;20.90;45.50;;;;;;5097683;28;19981;-44
2022/01/03 02:20:21;;;;;;;;;;;20.90;45.50;;;;;;5097397;28;20422;-45
2022/01/03 02:22:48;;;;;;;;;;;20.90;45.50;;;;;;5093538;28;20425;-41
2022/01/03 02:25:15;;;;;;;;;;;20.90;45.50;;;;;;5114298;28;19928;-44
2022/01/03 02:27:42;;;;;;;;;;;20.90;45.60;;;;;;5097390;28;20007;-42
2022/01/03 02:30:10;;;;;;;;;;;20.90;45.60;;;;;;5097850;28;19924;-42
2022/01/03 02:32:37;;;;;;;;;;;20.90;45.60;;;;;;5094126;27;20015;-44
2022/01/03 02:35:04;;;;;;;;;;;20.90;45.60;;;;;;5081500;28;20040;-43
2022/01/03 02:37:33;;;;;;;;;;;20.90;45.60;;;;;;5115462;28;20026;-42
2022/01/03 02:40:00;;;;;;;;;;;20.90;45.60;;;;;;5097372;28;20226;-44
2022/01/03 02:42:26;;;;;;;;;;;20.90;45.60;;;;;;5113125;28;19944;-43
2022/01/03 02:45:00;;;;;;;;;;;20.90;45.70;;;;;;5097086;28;20021;-43
2022/01/03 02:47:27;;;;;;;;;;;20.90;45.70;;;;;;5097378;28;19959;-44
2022/01/03 02:49:54;;;;;;;;;;;20.90;45.70;;;;;;5113479;27;19987;-43
2022/01/03 02:52:21;;;;;;;;;;;20.80;45.60;;;;;;5115916;28;20404;-43
2022/01/03 02:54:49;;;;;;;;;;;20.90;45.70;;;;;;5112935;28;19962;-47
2022/01/03 02:57:22;;;;;;;;;;;20.90;46.30;;;;;;5097948;28;19924;-42
2022/01/03 02:59:52;;;;;;;;;;;20.90;45.70;;;;;;5102923;28;19927;-42
2022/01/03 03:02:19;;;;;;;;;;;20.90;45.70;;;;;;5097807;28;19928;-43
2022/01/03 03:04:53;;;;;;;;;;;20.90;45.70;;;;;;5097359;28;19942;-40
2022/01/03 03:07:20;;;;;;;;;;;20.90;45.70;;;;;;5095150;28;20280;-45
2022/01/03 03:09:46;;;;;;;;;;;20.90;45.70;;;;;;5097713;28;20416;-43
2022/01/03 03:12:15;;;;;;;;;;;20.90;45.70;;;;;;5097296;27;19962;-43
2022/01/03 03:14:41;;;;;;;;;;;20.90;45.70;;;;;;5094639;28;20006;-43
2022/01/03 03:17:08;;;;;;;;;;;20.90;45.60;;;;;;5095627;28;19928;-41
2022/01/03 03:19:49;;;;;;;;;;;20.90;45.50;;;;;;5097320;28;19990;-44
2022/01/03 03:22:16;;;;;;;;;;;20.90;45.50;;;;;;5093535;28;19967;-43
2022/01/03 03:24:42;;;;;;;;;;;20.90;45.50;;;;;;5096866;28;19963;-45
2022/01/03 03:27:09;;;;;;;;;;;20.80;45.40;;;;;;5096489;28;19928;-45
2022/01/03 03:29:38;;;;;;;;;;;20.90;45.50;;;;;;5095591;28;19927;-43
2022/01/03 03:32:05;;;;;;;;;;;20.90;45.50;;;;;;5095344;28;20501;-46
2022/01/03 03:34:32;;;;;;;;;;;20.90;45.40;;;;;;5096962;28;20018;-45
2022/01/03 03:36:59;;;;;;;;;;;20.90;45.50;;;;;;5114991;28;19934;-42
2022/01/03 03:39:25;;;;;;;;;;;20.90;45.40;;;;;;5096651;28;19924;-42
2022/01/03 03:41:52;;;;;;;;;;;20.90;45.40;;;;;;5115286;28;20046;-43
2022/01/03 03:44:19;;;;;;;;;;;20.90;45.40;;;;;;5095746;28;19978;-44
2022/01/03 03:46:47;;;;;;;;;;;20.90;45.40;;;;;;5115566;28;20350;-44
2022/01/03 03:49:14;;;;;;;;;;;20.90;45.40;;;;;;5097516;28;19974;-41
2022/01/03 03:51:41;;;;;;;;;;;20.90;45.40;;;;;;5095516;28;20400;-43
2022/01/03 03:54:08;;;;;;;;;;;20.90;45.50;;;;;;5110300;28;19924;-46
2022/01/03 03:56:35;;;;;;;;;;;20.80;45.40;;;;;;5093678;28;19980;-44
2022/01/03 03:59:02;;;;;;;;;;;20.90;45.50;;;;;;5095663;27;20428;-44
2022/01/03 04:01:28;;;;;;;;;;;20.90;45.50;;;;;;5110240;28;19924;-44
2022/01/03 04:03:56;;;;;;;;;;;20.80;45.40;;;;;;5092714;28;20305;-47
2022/01/03 04:06:23;;;;;;;;;;;20.90;45.50;;;;;;5110120;28;19935;-43
2022/01/03 04:08:50;;;;;;;;;;;20.90;45.50;;;;;;5107262;28;19924;-44
2022/01/03 04:11:17;;;;;;;;;;;20.90;45.50;;;;;;5102157;28;19951;-45
2022/01/03 04:13:44;;;;;;;;;;;20.90;45.50;;;;;;5095814;28;19930;-44
2022/01/03 04:16:12;;;;;;;;;;;20.90;45.50;;;;;;5093618;28;19928;-44
2022/01/03 04:18:38;;;;;;;;;;;20.90;45.50;;;;;;5091665;28;19924;-44
2022/01/03 04:21:07;;;;;;;;;;;20.90;45.50;;;;;;5090416;28;19932;-42
2022/01/03 04:23:33;;;;;;;;;;;20.90;45.60;;;;;;5112412;28;20346;-44
2022/01/03 04:26:00;;;;;;;;;;;20.90;45.50;;;;;;5095016;28;19970;-41
2022/01/03 04:28:27;;;;;;;;;;;20.90;45.60;;;;;;5094509;28;19923;-43
2022/01/03 04:30:54;;;;;;;;;;;20.90;45.60;;;;;;5091526;28;19931;-42
2022/01/03 04:33:21;;;;;;;;;;;20.90;45.60;;;;;;5094474;28;19931;-44
2022/01/03 04:35:48;;;;;;;;;;;20.80;45.50;;;;;;5094719;28;20084;-48
2022/01/03 04:38:16;;;;;;;;;;;20.80;45.50;;;;;;5094634;28;20006;-47
2022/01/03 04:40:43;;;;;;;;;;;20.80;45.60;;;;;;5090489;28;19928;-43
2022/01/03 04:43:10;;;;;;;;;;;20.80;45.60;;;;;;5111250;28;19977;-43
2022/01/03 04:45:37;;;;;;;;;;;20.90;46.20;;;;;;5085182;28;19996;-43
2022/01/03 04:48:04;;;;;;;;;;;20.80;45.50;;;;;;5115233;28;19923;-43
2022/01/03 04:50:31;;;;;;;;;;;20.80;45.60;;;;;;5094307;28;19924;-44
2022/01/03 04:52:58;;;;;;;;;;;20.80;45.60;;;;;;5094987;28;20380;-42
2022/01/03 04:55:26;;;;;;;;;;;20.90;45.70;;;;;;5094514;28;19924;-44
2022/01/03 04:57:53;;;;;;;;;;;20.80;45.60;;;;;;5090057;28;19927;-44
2022/01/03 05:00:19;;;;;;;;;;;20.80;45.60;;;;;;5094490;28;20023;-45
2022/01/03 05:02:46;;;;;;;;;;;20.90;45.70;;;;;;5093843;28;19935;-42
2022/01/03 05:05:13;;;;;;;;;;;20.80;45.60;;;;;;5093181;28;19978;-46
2022/01/03 05:07:40;;;;;;;;;;;20.80;45.60;;;;;;5110886;28;20030;-41
2022/01/03 05:10:07;;;;;;;;;;;20.80;45.60;;;;;;5098971;28;20388;-42
2022/01/03 05:12:35;;;;;;;;;;;20.80;45.60;;;;;;5099029;28;20002;-47
2022/01/03 05:15:02;;;;;;;;;;;20.80;46.20;;;;;;5098619;28;19959;-47
2022/01/03 05:17:31;;;;;;;;;;;20.80;45.70;;;;;;5102331;28;20440;-45
2022/01/03 05:19:58;;;;;;;;;;;20.80;45.70;;;;;;5097357;28;19953;-47
2022/01/03 05:22:25;;;;;;;;;;;20.80;45.70;;;;;;5098889;28;19924;-43
2022/01/03 05:24:51;;;;;;;;;;;20.80;45.70;;;;;;5117762;28;19919;-44
2022/01/03 05:27:18;;;;;;;;;;;20.80;45.70;;;;;;5100266;28;19980;-42
2022/01/03 05:29:47;;;;;;;;;;;20.80;45.70;;;;;;5098617;28;20334;-44
2022/01/03 05:32:19;;;;;;;;;;;20.80;45.70;;;;;;5104201;28;19931;-43
2022/01/03 05:34:46;;;;;;;;;;;20.80;45.70;;;;;;5100341;28;20037;-46
2022/01/03 05:37:13;;;;;;;;;;;20.80;45.70;;;;;;5100022;28;19924;-41
2022/01/03 05:39:41;;;;;;;;;;;20.80;45.70;;;;;;5098681;28;19961;-45
2022/01/03 05:42:08;;;;;;;;;;;20.80;45.80;;;;;;5116597;28;19924;-41
2022/01/03 05:44:35;;;;;;;;;;;20.80;45.70;;;;;;5098975;28;19958;-43
2022/01/03 05:47:03;;;;;;;;;;;20.80;45.70;;;;;;5094449;28;19978;-45
2022/01/03 05:49:30;;;;;;;;;;;20.80;45.80;;;;;;5100033;28;19927;-41
2022/01/03 05:51:57;;;;;;;;;;;20.80;45.80;;;;;;5104967;27;19982;-45
2022/01/03 05:54:24;;;;;;;;;;;20.80;45.80;;;;;;5099581;28;19923;-41
2022/01/03 05:56:51;;;;;;;;;;;20.80;45.80;;;;;;5102500;27;19923;-42
2022/01/03 05:59:17;;;;;;;;;;;20.80;45.80;;;;;;5105789;28;20015;-43
2022/01/03 06:01:45;;;;;;;;;;;20.80;45.80;;;;;;5111870;28;19927;-44
2022/01/03 06:04:20;;;;;;;;;;;20.80;45.80;;;;;;5095198;28;20396;-45
2022/01/03 06:09:28;;;;;;;;;;;20.80;45.80;;;;;;5095600;28;19928;-45
2022/01/03 06:11:55;;;;;;;;;;;20.80;45.80;;;;;;5097842;28;19931;-43
2022/01/03 06:14:22;;;;;;;;;;;20.80;45.80;;;;;;5093415;28;19927;-41
2022/01/03 06:16:50;;;;;;;;;;;20.80;45.80;;;;;;5116584;28;19969;-44
2022/01/03 06:19:18;;;;;;;;;;;20.80;45.80;;;;;;5098348;28;19935;-42
2022/01/03 06:21:45;;;;;;;;;;;20.80;45.80;;;;;;5097682;28;19995;-45
2022/01/03 06:24:11;;;;;;;;;;;20.80;45.80;;;;;;5097686;28;19999;-44
2022/01/03 06:26:39;;;;;;;;;;;20.80;45.80;;;;;;5096531;28;20377;-43
2022/01/03 06:29:06;;;;;;;;;;;20.80;45.80;;;;;;5097997;28;19919;-45
2022/01/03 06:31:33;;;;;;;;;;;20.80;45.80;;;;;;5113927;28;19924;-45
2022/01/03 06:34:00;;;;;;;;;;;20.80;45.80;;;;;;5116009;27;19931;-45
2022/01/03 06:36:28;;;;;;;;;;;20.80;45.90;;;;;;5095932;28;20338;-45
2022/01/03 06:38:56;;;;;;;;;;;20.80;45.90;;;;;;5095721;28;20282;-46
2022/01/03 06:41:23;;;;;;;;;;;20.80;45.90;;;;;;5095718;28;19927;-43
2022/01/03 06:43:49;;;;;;;;;;;20.80;45.90;;;;;;5098741;28;20372;-45
2022/01/03 06:46:16;;;;;;;;;;;20.80;45.90;;;;;;5092791;28;20361;-43
2022/01/03 06:48:43;;;;;;;;;;;20.80;45.90;;;;;;5098965;28;19931;-42
2022/01/03 06:51:10;;;;;;;;;;;20.80;45.90;;;;;;5096188;28;19930;-45
2022/01/03 06:53:38;;;;;;;;;;;20.80;45.90;;;;;;5094486;28;20018;-43
2022/01/03 06:56:05;;;;;;;;;;;20.80;45.90;;;;;;5092835;28;20044;-47
2022/01/03 06:58:32;;;;;;;;;;;20.80;45.90;;;;;;5097177;28;19951;-45
2022/01/03 07:00:59;;;;;;;;;;;20.80;45.90;;;;;;5096197;28;19992;-42
2022/01/03 07:03:26;;;;;;;;;;;20.80;45.90;;;;;;5113286;27;20362;-46
2022/01/03 07:05:53;;;;;;;;;;;20.80;45.90;;;;;;5096456;28;19962;-43
2022/01/03 07:08:20;;;;;;;;;;;20.80;46.00;;;;;;5093970;28;20015;-41
2022/01/03 07:10:49;;;;;;;;;;;20.80;45.90;;;;;;5111195;28;19932;-46
2022/01/03 07:13:15;;;;;;;;;;;20.80;46.00;;;;;;5097357;28;19927;-42
2022/01/03 07:21:07;;;;;;;;;;;20.80;46.00;;;;;;5097663;28;19984;-43
2022/01/03 07:23:34;;;;;;;;;;;20.80;45.90;;;;;;5096157;28;19924;-43
2022/01/03 07:26:02;;;;;;;;;;;20.80;45.90;;;;;;5084607;28;19923;-46
2022/01/03 07:28:29;;;;;;;;;;;20.80;45.90;;;;;;5095681;28;19977;-45
2022/01/03 07:30:56;;;;;;;;;;;20.80;45.90;;;;;;5093409;28;19924;-44
2022/01/03 07:33:22;;;;;;;;;;;20.80;45.90;;;;;;5082698;28;19928;-42
2022/01/03 07:35:49;;;;;;;;;;;20.80;45.90;;;;;;5096090;28;19924;-41
2022/01/03 07:38:16;;;;;;;;;;;20.80;46.00;;;;;;5090371;28;20018;-41
2022/01/03 07:40:43;;;;;;;;;;;20.80;46.00;;;;;;5083569;28;19981;-47
2022/01/03 07:43:11;;;;;;;;;;;20.80;46.00;;;;;;5094055;28;19946;-43
2022/01/03 07:45:38;;;;;;;;;;;20.80;46.10;;;;;;5100849;28;19928;-42
2022/01/03 07:48:05;;;;;;;;;;;20.80;46.00;;;;;;5091214;28;19981;-48
2022/01/03 07:50:32;;;;;;;;;;;20.80;45.90;;;;;;5088841;28;20274;-49
2022/01/03 07:53:00;;;;;;;;;;;20.80;46.00;;;;;;5080839;28;19928;-49
2022/01/03 07:55:27;;;;;;;;;;;20.80;46.00;;;;;;5088013;28;20288;-51
2022/01/03 07:57:53;;;;;;;;;;;20.80;46.10;;;;;;5066205;28;19928;-56
2022/01/03 08:00:22;;;;;;;;;;;20.80;46.00;;;;;;5087102;28;20353;-48
2022/01/03 08:02:49;;;;;;;;;;;20.80;46.00;;;;;;5077569;28;20459;-49
2022/01/03 08:05:15;;;;;;;;;;;20.80;45.80;;;;;;5102643;28;19928;-54
2022/01/03 08:07:43;;;;;;;;;;;20.80;45.80;;;;;;5104369;28;19973;-52
2022/01/03 08:10:10;;;;;;;;;;;20.80;45.60;;;;;;5083005;28;19927;-60
2022/01/03 08:12:37;;;;;;;;;;;20.80;45.50;;;;;;5087403;28;19969;-50
2022/01/03 08:15:04;;;;;;;;;;;20.70;45.30;;;;;;5085028;28;20385;-50
2022/01/03 08:17:33;;;;;;;;;;;20.70;45.20;;;;;;5106859;28;20376;-51
2022/01/03 08:20:00;;;;;;;;;;;20.70;45.10;;;;;;5088657;28;19931;-58
2022/01/03 08:22:27;;;;;;;;;;;20.70;45.10;;;;;;5102352;28;19931;-57
2022/01/03 08:24:53;;;;;;;;;;;20.70;45.10;;;;;;5101475;28;20432;-52
2022/01/03 08:27:20;;;;;;;;;;;20.70;45.10;;;;;;5088353;28;19930;-54
2022/01/03 08:29:47;;;;;;;;;;;20.60;44.90;;;;;;5089716;28;19930;-47
2022/01/03 08:32:14;;;;;;;;;;;20.60;45.00;;;;;;5087686;28;19931;-48
2022/01/03 08:34:42;;;;;;;;;;;20.60;44.90;;;;;;5089137;28;19924;-49
2022/01/03 08:37:09;;;;;;;;;;;20.60;44.80;;;;;;5084734;28;19928;-55
2022/01/03 08:39:36;;;;;;;;;;;20.60;44.80;;;;;;5084907;28;19977;-49
2022/01/03 08:42:04;;;;;;;;;;;20.60;44.80;;;;;;5097886;28;19935;-48
2022/01/03 08:44:30;;;;;;;;;;;20.60;44.80;;;;;;5087996;28;20514;-52
2022/01/03 08:46:57;;;;;;;;;;;20.60;44.80;;;;;;5095336;28;20027;-48
2022/01/03 08:49:24;;;;;;;;;;;20.60;44.80;;;;;;5100860;28;20542;-50
2022/01/03 08:51:52;;;;;;;;;;;20.60;44.80;;;;;;5087791;28;19931;-47
2022/01/03 08:54:19;;;;;;;;;;;20.50;44.80;;;;;;5089865;28;20417;-57
2022/01/03 08:56:45;;;;;;;;;;;20.50;44.80;;;;;;5066987;28;19931;-54
2022/01/03 08:59:12;;;;;;;;;;;20.50;44.80;;;;;;5095597;28;20031;-47
2022/01/03 09:01:39;;;;;;;;;;;20.50;44.70;;;;;;5070146;28;19934;-49
2022/01/03 09:04:06;;;;;;;;;;;20.50;44.80;;;;;;5095307;28;19936;-49
2022/01/03 09:06:33;;;;;;;;;;;20.50;44.80;;;;;;5075771;28;20289;-47
2022/01/03 09:09:01;;;;;;;;;;;20.50;44.80;;;;;;5087111;28;19924;-60
2022/01/03 09:11:28;;;;;;;;;;;20.50;44.70;;;;;;5081484;28;19981;-53
2022/01/03 09:13:55;;;;;;;;;;;20.50;44.70;;;;;;5084820;28;19928;-50
2022/01/03 09:16:21;;;;;;;;;;;20.50;44.70;;;;;;5105462;28;20380;-52
2022/01/03 09:18:48;;;;;;;;;;;20.50;44.70;;;;;;5104641;28;19938;-52
2022/01/03 09:21:15;;;;;;;;;;;20.50;44.70;;;;;;5103705;28;20376;-56
2022/01/03 09:23:47;;;;;;;;;;;20.50;44.80;;;;;;5090916;28;19923;-51
2022/01/03 09:28:59;;;;;;;;;;;20.50;44.80;;;;;;5105709;28;20296;-48
2022/01/03 09:31:26;;;;;;;;;;;20.50;44.80;;;;;;5071465;28;19985;-53
2022/01/03 09:33:53;;;;;;;;;;;20.50;44.80;;;;;;5081170;28;20032;-59
2022/01/03 09:36:20;;;;;;;;;;;20.50;44.90;;;;;;5105320;28;19991;-54
2022/01/03 09:38:47;;;;;;;;;;;20.50;44.90;;;;;;5081020;28;19928;-53
2022/01/03 09:41:14;;;;;;;;;;;20.50;44.90;;;;;;5086610;28;19946;-49
2022/01/03 09:43:47;;;;;;;;;;;20.50;44.80;;;;;;5077905;28;20014;-52
2022/01/03 09:46:15;;;;;;;;;;;20.50;44.80;;;;;;5089861;28;19928;-55
2022/01/03 09:48:42;;;;;;;;;;;20.50;44.80;;;;;;5088856;28;19978;-55
2022/01/03 09:51:11;;;;;;;;;;;20.50;45.00;;;;;;5090074;28;19951;-50
2022/01/03 09:53:38;;;;;;;;;;;20.50;44.80;;;;;;5104370;28;20377;-51
2022/01/03 09:56:05;;;;;;;;;;;20.50;44.80;;;;;;5090014;28;19939;-59
2022/01/03 09:58:32;;;;;;;;;;;20.50;44.80;;;;;;5088017;28;19927;-51
2022/01/03 10:01:00;;;;;;;;;;;20.50;44.70;;;;;;5080893;28;19947;-57
2022/01/03 10:03:26;;;;;;;;;;;20.50;44.70;;;;;;5090145;28;20440;-55
2022/01/03 10:05:53;;;;;;;;;;;20.50;44.80;;;;;;5089630;28;20331;-56
2022/01/03 10:08:21;;;;;;;;;;;20.50;44.80;;;;;;5089019;28;19924;-54
2022/01/03 10:10:49;;;;;;;;;;;20.50;44.80;;;;;;5088808;28;19924;-55
2022/01/03 10:13:16;;;;;;;;;;;20.40;44.60;;;;;;5088293;28;20022;-50
2022/01/03 10:15:43;;;;;;;;;;;20.40;44.60;;;;;;5085280;28;19924;-53
2022/01/03 10:18:18;;;;;;;;;;;20.40;44.60;;;;;;5090271;28;19930;-51
2022/01/03 10:20:44;;;;;;;;;;;20.40;44.60;;;;;;5100204;28;19977;-55
2022/01/03 10:23:11;;;;;;;;;;;20.40;44.50;;;;;;5089184;28;19928;-53
2022/01/03 10:25:38;;;;;;;;;;;20.40;44.50;;;;;;5088939;28;19950;-50
2022/01/03 10:28:05;;;;;;;;;;;20.40;44.50;;;;;;5077371;28;20446;-52
2022/01/03 10:30:33;;;;;;;;;;;20.40;44.60;;;;;;5088037;28;20401;-55
2022/01/03 10:33:00;;;;;;;;;;;20.40;44.50;;;;;;5082809;28;19930;-48
2022/01/03 10:35:29;;;;;;;;;;;20.40;44.50;;;;;;5107357;28;19969;-49
2022/01/03 10:37:56;;;;;;;;;;;20.40;44.50;;;;;;5085776;28;19934;-51
2022/01/03 10:40:25;;;;;;;;;;;20.40;44.50;;;;;;5107652;28;19923;-51
2022/01/03 10:42:52;;;;;;;;;;;20.40;44.50;;;;;;5089202;28;19930;-55
2022/01/03 10:45:27;;;;;;;;;;;20.40;44.50;;;;;;5089444;28;19924;-60
2022/01/03 10:47:54;;;;;;;;;;;20.40;44.50;;;;;;5085182;28;20019;-54
2022/01/03 10:50:20;;;;;;;;;;;20.40;44.50;;;;;;5101506;28;19951;-59
2022/01/03 10:52:49;;;;;;;;;;;20.40;44.50;;;;;;5106424;28;19923;-59
2022/01/03 10:55:16;;;;;;;;;;;20.40;44.50;;;;;;5089386;28;19924;-54
2022/01/03 10:57:52;;;;;;;;;;;20.40;44.50;;;;;;5097778;28;20274;-51
2022/01/03 11:00:19;;;;;;;;;;;20.40;44.40;;;;;;5108014;28;19963;-54
2022/01/03 11:03:14;;;;;;;;;;;20.40;44.50;;;;;;5090666;28;20008;-55
2022/01/03 11:05:43;;;;;;;;;;;20.40;44.50;;;;;;5089635;28;19923;-56
2022/01/03 11:10:55;;;;;;;;;;;20.40;44.50;;;;;;5107068;28;19932;-57
2022/01/03 11:13:23;;;;;;;;;;;20.30;44.40;;;;;;5086217;28;19928;-50
2022/01/03 11:15:51;;;;;;;;;;;20.40;44.50;;;;;;5085388;28;20022;-53
2022/01/03 11:18:18;;;;;;;;;;;20.40;44.50;;;;;;5071631;28;19931;-48
2022/01/03 11:20:45;;;;;;;;;;;20.30;44.70;;;;;;5076981;28;19931;-57
2022/01/03 11:23:20;;;;;;;;;;;20.30;44.80;;;;;;5070197;28;20760;-53
2022/01/03 11:25:47;;;;;;;;;;;20.30;44.80;;;;;;5107167;28;19924;-49
2022/01/03 11:28:14;;;;;;;;;;;20.30;44.70;;;;;;5089484;28;19926;-59
2022/01/03 11:30:41;;;;;;;;;;;20.30;44.70;;;;;;5100056;28;19930;-56
2022/01/03 11:33:09;;;;;;;;;;;20.30;44.60;;;;;;5096302;27;20257;-51
2022/01/03 11:35:36;;;;;;;;;;;20.30;44.60;;;;;;5115826;27;19936;-51
2022/01/03 11:38:03;;;;;;;;;;;20.30;44.60;;;;;;5107763;28;19931;-58
2022/01/03 11:40:31;;;;;;;;;;;20.30;44.60;;;;;;5099271;28;19985;-51
2022/01/03 11:42:57;;;;;;;;;;;20.30;44.50;;;;;;5089258;28;19924;-51
2022/01/03 11:45:24;;;;;;;;;;;20.30;44.50;;;;;;5105810;28;19953;-55
2022/01/03 11:47:51;;;;;;;;;;;20.30;44.50;;;;;;5089864;28;19930;-54
2022/01/03 11:50:18;;;;;;;;;;;20.30;44.50;;;;;;5087806;28;20018;-57
2022/01/03 11:52:45;;;;;;;;;;;20.30;44.50;;;;;;5106497;28;19924;-58
2022/01/03 11:55:12;;;;;;;;;;;20.30;44.50;;;;;;5102002;28;19947;-57
2022/01/03 11:58:08;;;;;;;;;;;20.30;44.50;;;;;;5068457;28;19924;-50
2022/01/03 12:06:04;;;;;;;;;;;20.30;44.50;;;;;;5083707;28;20014;-55
2022/01/03 12:08:32;;;;;;;;;;;20.30;44.50;;;;;;5082494;28;20322;-54
2022/01/03 12:11:00;;;;;;;;;;;20.30;44.50;;;;;;5086929;28;19967;-60
2022/01/03 12:13:45;;;;;;;;;;;20.30;44.50;;;;;;5078072;28;20380;-53
2022/01/03 12:16:14;;;;;;;;;;;20.30;44.60;;;;;;5102454;28;20287;-53
2022/01/03 12:18:41;;;;;;;;;;;20.30;44.80;;;;;;5101754;28;20396;-55
2022/01/03 12:21:07;;;;;;;;;;;20.30;44.70;;;;;;5105798;28;19930;-52
2022/01/03 12:23:38;;;;;;;;;;;20.30;44.60;;;;;;5106613;28;20270;-56
2022/01/03 12:26:08;;;;;;;;;;;20.30;44.50;;;;;;5080879;28;19927;-57
2022/01/03 12:28:50;;;;;;;;;;;20.30;44.50;;;;;;5107581;28;19928;-51
2022/01/03 12:31:19;;;;;;;;;;;20.30;44.50;;;;;;5104753;28;19930;-57
2022/01/03 12:33:56;;;;;;;;;;;20.30;44.50;;;;;;5086957;28;20450;-54
2022/01/03 12:36:24;;;;;;;;;;;20.30;44.50;;;;;;5103888;28;19920;-54
2022/01/03 12:39:01;;;;;;;;;;;20.30;44.50;;;;;;5105941;28;19931;-51
2022/01/03 12:41:38;;;;;;;;;;;20.30;44.40;;;;;;5104302;28;19976;-49
2022/01/03 12:44:05;;;;;;;;;;;20.30;44.50;;;;;;5073396;28;19932;-58
2022/01/03 12:46:33;;;;;;;;;;;20.30;44.40;;;;;;5086519;28;20018;-52
2022/01/03 12:49:00;;;;;;;;;;;20.30;44.40;;;;;;5085348;28;20387;-49
2022/01/03 12:51:36;;;;;;;;;;;20.30;44.40;;;;;;5082696;28;19981;-52
2022/01/03 12:54:07;;;;;;;;;;;20.20;44.40;;;;;;5086833;28;19938;-54
2022/01/03 12:56:33;;;;;;;;;;;20.30;44.40;;;;;;5103954;28;20314;-53
2022/01/03 12:59:16;;;;;;;;;;;20.30;44.40;;;;;;5104898;28;19924;-51
2022/01/03 13:01:44;;;;;;;;;;;20.30;44.40;;;;;;5102227;28;19924;-51
2022/01/03 13:04:24;;;;;;;;;;;20.30;44.40;;;;;;5102814;28;19931;-46
2022/01/03 13:06:51;;;;;;;;;;;20.20;44.40;;;;;;5098601;28;19931;-48
2022/01/03 13:09:18;;;;;;;;;;;20.30;44.50;;;;;;5092641;28;20336;-43
2022/01/03 13:11:46;;;;;;;;;;;20.30;44.50;;;;;;5087618;28;19928;-47
2022/01/03 13:14:14;;;;;;;;;;;20.30;45.00;;;;;;5081987;28;19924;-45
2022/01/03 13:16:41;;;;;;;;;;;20.30;46.80;;;;;;5106125;28;20003;-49
2022/01/03 13:19:12;;;;;;;;;;;20.70;47.10;;;;;;5090581;28;19932;-44
2022/01/03 13:21:39;;;;;;;;;;;21.80;46.70;;;;;;5084593;28;20373;-47
2022/01/03 13:24:07;;;;;;;;;;;;;;;;;;5085986;28;20342;-43
2022/01/03 13:26:34;;;;;;;;;;;24.30;43.00;;;;;;5103303;28;19923;-45
2022/01/03 13:29:01;;;;;;;;;;;25.80;41.20;;;;;;5104084;28;19951;-45
2022/01/03 13:31:28;;;;;;;;;;;27.10;39.00;;;;;;5090302;28;19965;-46
2022/01/03 13:33:55;;;;;;;;;;;28.30;37.20;;;;;;5079410;28;19988;-44
2022/01/03 13:36:26;;;;;;;;;;;29.20;35.80;;;;;;5088131;28;19927;-48
2022/01/03 13:38:52;;;;;;;;;;;30.10;34.50;;;;;;5088578;28;19959;-47
2022/01/03 13:41:20;;;;;;;;;;;;;;;;;;5089838;28;19928;-47
2022/01/03 13:43:51;;;;;;;;;;;31.30;31.70;;;;;;5106659;28;20377;-46
2022/01/03 13:49:12;;;;;;;;;;;32.20;30.60;;;;;;5104101;28;19923;-42
2022/01/03 13:51:40;;;;;;;;;;;32.70;30.00;;;;;;5086148;28;20020;-44
2022/01/03 13:54:07;;;;;;;;;;;33.00;29.60;;;;;;5105392;28;19931;-44
2022/01/03 13:56:40;;;;;;;;;;;33.20;29.30;;;;;;5095596;28;19924;-43
2022/01/03 13:59:07;;;;;;;;;;;33.40;28.90;;;;;;5090355;28;19939;-48
2022/01/03 14:01:34;;;;;;;;;;;33.60;28.60;;;;;;5091060;28;19985;-45
2022/01/03 14:04:01;;;;;;;;;;;33.80;28.50;;;;;;5105082;28;19934;-47
2022/01/03 14:06:28;;;;;;;;;;;33.90;28.20;;;;;;5083526;28;19928;-43
2022/01/03 14:08:56;;;;;;;;;;;34.00;28.10;;;;;;5090663;28;19924;-47
2022/01/03 14:11:24;;;;;;;;;;;34.20;27.90;;;;;;5087174;28;20330;-43
2022/01/03 14:13:51;;;;;;;;;;;34.30;27.70;;;;;;5088054;28;19991;-44
2022/01/03 14:16:17;;;;;;;;;;;34.40;27.60;;;;;;5091289;28;19927;-44
2022/01/03 14:18:45;;;;;;;;;;;34.50;27.30;;;;;;5091027;28;19945;-45
2022/01/03 14:21:12;;;;;;;;;;;34.60;27.30;;;;;;5105163;28;19927;-46
2022/01/03 14:23:43;;;;;;;;;;;34.60;27.10;;;;;;5086785;28;19967;-45
2022/01/03 14:26:31;;;;;;;;;;;34.70;27.00;;;;;;5092510;28;20019;-44
2022/01/03 14:29:01;;;;;;;;;;;34.80;26.90;;;;;;5087566;28;20361;-42
2022/01/03 14:31:39;;;;;;;;;;;34.90;26.80;;;;;;5094069;28;20295;-45
2022/01/03 14:34:06;;;;;;;;;;;35.00;26.70;;;;;;5085871;28;19978;-43
2022/01/03 14:36:37;;;;;;;;;;;35.00;26.60;;;;;;5095191;28;19938;-43
2022/01/03 14:39:04;;;;;;;;;;;35.10;26.50;;;;;;5089667;28;19962;-43
2022/01/03 14:41:32;;;;;;;;;;;35.20;26.40;;;;;;5092569;28;19928;-44
2022/01/03 14:44:00;;;;;;;;;;;35.20;26.40;;;;;;5093723;28;20318;-45
2022/01/03 14:46:34;;;;;;;;;;;35.30;26.40;;;;;;5083286;28;19943;-44